createdAt,value
2017-10-19T00:00:39.936Z,8.40
2017-10-19T00:03:06.243Z,8.30
2017-10-19T00:05:32.580Z,8.30
2017-10-19T00:07:58.867Z,8.30
2017-10-19T00:10:25.208Z,8.30
2017-10-19T00:12:52.283Z,8.20
2017-10-19T00:15:18.972Z,8.10
2017-10-19T00:17:46.060Z,8.10
2017-10-19T00:20:12.461Z,8.10
2017-10-19T00:22:38.790Z,8.10
2017-10-19T00:25:05.115Z,8.10
2017-10-19T00:27:31.473Z,8.00
2017-10-19T00:30:04.806Z,8.10
2017-10-19T00:32:31.181Z,8.10
2017-10-19T00:34:58.263Z,8.00
2017-10-19T00:37:24.652Z,8.00
2017-10-19T00:39:51.716Z,7.90
2017-10-19T00:42:18.082Z,8.00
2017-10-19T00:44:44.447Z,7.90
2017-10-19T00:47:10.771Z,7.90
2017-10-19T00:49:37.187Z,7.90
2017-10-19T00:52:03.542Z,7.80
2017-10-19T00:54:30.670Z,7.80
2017-10-19T00:56:57.064Z,7.80
2017-10-19T00:59:23.443Z,7.80
2017-10-19T01:01:49.824Z,7.70
2017-10-19T01:04:16.177Z,7.80
2017-10-19T01:06:42.571Z,7.80
2017-10-19T01:09:08.932Z,7.80
2017-10-19T01:11:35.278Z,7.70
2017-10-19T01:14:01.642Z,7.70
2017-10-19T01:16:28.762Z,7.70
2017-10-19T01:18:55.239Z,7.70
2017-10-19T01:21:21.597Z,7.70
2017-10-19T01:23:48.054Z,7.60
2017-10-19T01:26:14.417Z,7.70
2017-10-19T01:28:40.877Z,7.60
2017-10-19T01:31:07.244Z,7.60
2017-10-19T01:33:33.626Z,7.60
2017-10-19T01:36:00.021Z,7.60
2017-10-19T01:38:27.150Z,7.50
2017-10-19T01:40:53.534Z,7.50
2017-10-19T01:43:19.915Z,7.50
2017-10-19T01:45:46.309Z,7.50
2017-10-19T01:48:12.692Z,7.50
2017-10-19T01:50:39.796Z,7.40
2017-10-19T01:53:06.133Z,7.50
2017-10-19T01:55:32.453Z,7.50
2017-10-19T01:57:58.782Z,7.50
2017-10-19T02:00:26.009Z,7.50
2017-10-19T02:02:52.326Z,7.40
2017-10-19T02:05:18.692Z,7.40
2017-10-19T02:07:44.988Z,7.40
2017-10-19T02:10:11.284Z,7.30
2017-10-19T02:12:37.596Z,7.30
2017-10-19T02:15:03.937Z,7.30
2017-10-19T02:17:30.212Z,7.30
2017-10-19T02:19:56.553Z,7.30
2017-10-19T02:22:22.842Z,7.30
2017-10-19T02:24:49.935Z,7.30
2017-10-19T02:27:16.229Z,7.30
2017-10-19T02:32:15.320Z,7.30
2017-10-19T02:34:41.587Z,7.20
2017-10-19T02:37:07.868Z,7.20
2017-10-19T02:39:34.170Z,7.20
2017-10-19T02:42:00.426Z,7.20
2017-10-19T02:44:26.725Z,7.10
2017-10-19T02:46:53.035Z,7.10
2017-10-19T02:49:19.333Z,7.30
2017-10-19T02:51:46.384Z,7.70
2017-10-19T02:54:12.681Z,7.70
2017-10-19T02:56:39.002Z,8.00
2017-10-19T02:59:05.335Z,8.20
2017-10-19T03:01:31.639Z,8.40
2017-10-19T03:03:57.928Z,8.50
2017-10-19T03:06:24.267Z,8.50
2017-10-19T03:08:50.590Z,8.40
2017-10-19T03:11:16.869Z,8.20
2017-10-19T03:13:43.192Z,8.00
2017-10-19T03:16:09.490Z,7.90
2017-10-19T03:18:35.850Z,7.70
2017-10-19T03:21:02.133Z,7.70
2017-10-19T03:23:28.424Z,7.60
2017-10-19T03:25:54.728Z,7.50
2017-10-19T03:28:21.033Z,7.50
2017-10-19T03:30:47.335Z,7.50
2017-10-19T03:33:13.622Z,7.40
2017-10-19T03:35:39.962Z,7.30
2017-10-19T03:38:06.242Z,7.30
2017-10-19T03:40:32.536Z,7.30
2017-10-19T03:42:59.583Z,7.20
2017-10-19T03:45:26.637Z,7.20
2017-10-19T03:47:52.978Z,7.10
2017-10-19T03:50:19.309Z,7.10
2017-10-19T03:52:45.597Z,7.10
2017-10-19T03:55:11.928Z,7.00
2017-10-19T03:57:39.037Z,7.00
2017-10-19T04:00:05.352Z,7.00
2017-10-19T04:02:31.615Z,7.00
2017-10-19T04:04:57.911Z,7.00
2017-10-19T04:07:24.177Z,7.00
2017-10-19T04:09:50.465Z,7.00
2017-10-19T04:12:16.724Z,7.00
2017-10-19T04:14:43.028Z,7.00
2017-10-19T04:17:09.302Z,7.00
2017-10-19T04:19:36.396Z,7.00
2017-10-19T04:22:02.674Z,7.00
2017-10-19T04:24:29.698Z,7.00
2017-10-19T04:26:55.982Z,7.00
2017-10-19T04:29:22.265Z,7.00
2017-10-19T04:31:48.558Z,7.00
2017-10-19T04:34:14.846Z,6.90
2017-10-19T04:36:41.935Z,6.90
2017-10-19T04:39:08.227Z,6.90
2017-10-19T04:41:34.543Z,7.00
2017-10-19T04:44:00.842Z,7.00
2017-10-19T04:46:27.108Z,6.90
2017-10-19T04:48:53.400Z,6.90
2017-10-19T04:51:19.747Z,6.90
2017-10-19T04:53:46.794Z,6.80
2017-10-19T04:56:13.853Z,6.80
2017-10-19T04:58:40.892Z,6.80
2017-10-19T05:01:07.969Z,6.90
2017-10-19T05:03:34.243Z,6.80
2017-10-19T05:06:00.535Z,6.80
2017-10-19T05:08:26.825Z,6.90
2017-10-19T05:10:53.147Z,6.90
2017-10-19T05:13:20.224Z,6.90
2017-10-19T05:15:46.803Z,6.90
2017-10-19T05:18:13.146Z,6.80
2017-10-19T05:20:39.537Z,6.80
2017-10-19T05:23:05.880Z,6.80
2017-10-19T05:25:32.207Z,6.80
2017-10-19T05:27:58.509Z,6.80
2017-10-19T05:30:24.821Z,6.70
2017-10-19T05:32:51.114Z,6.60
2017-10-19T05:35:18.170Z,7.40
2017-10-19T05:37:45.192Z,7.70
2017-10-19T05:40:11.496Z,7.70
2017-10-19T05:42:37.795Z,7.70
2017-10-19T05:45:04.099Z,7.60
2017-10-19T05:47:31.121Z,7.90
2017-10-19T05:49:57.438Z,7.90
2017-10-19T05:52:23.709Z,8.20
2017-10-19T05:54:50.795Z,8.50
2017-10-19T05:57:17.080Z,8.50
2017-10-19T05:59:44.125Z,8.80
2017-10-19T06:02:11.172Z,8.80
2017-10-19T06:04:38.183Z,8.80
2017-10-19T06:07:04.497Z,8.80
2017-10-19T06:09:30.785Z,8.70
2017-10-19T06:11:57.802Z,8.70
2017-10-19T06:14:24.091Z,8.60
2017-10-19T06:16:50.405Z,8.70
2017-10-19T06:19:16.736Z,8.70
2017-10-19T06:21:43.018Z,8.70
2017-10-19T06:24:10.033Z,8.80
2017-10-19T06:26:36.334Z,8.70
2017-10-19T06:29:02.647Z,8.80
2017-10-19T06:31:28.945Z,8.80
2017-10-19T06:33:56.325Z,8.80
2017-10-19T06:36:22.616Z,8.80
2017-10-19T06:38:48.923Z,8.80
2017-10-19T06:41:15.243Z,8.80
2017-10-19T06:43:41.550Z,8.80
2017-10-19T06:46:08.175Z,8.80
2017-10-19T06:48:34.489Z,8.90
2017-10-19T06:51:00.791Z,8.90
2017-10-19T06:53:27.079Z,9.00
2017-10-19T06:55:53.355Z,9.00
2017-10-19T06:58:19.883Z,9.10
2017-10-19T07:00:46.177Z,9.40
2017-10-19T07:03:19.347Z,9.80
2017-10-19T07:05:45.655Z,10.10
2017-10-19T07:08:12.086Z,10.40
2017-10-19T07:10:38.455Z,10.70
2017-10-19T07:13:04.780Z,11.00
2017-10-19T07:15:31.057Z,11.20
2017-10-19T07:17:58.091Z,11.80
2017-10-19T07:20:24.514Z,11.70
2017-10-19T07:22:50.794Z,12.10
2017-10-19T07:25:17.119Z,12.30
2017-10-19T07:27:43.432Z,12.40
2017-10-19T07:30:10.497Z,12.40
2017-10-19T07:32:36.828Z,12.40
2017-10-19T07:35:03.139Z,12.20
2017-10-19T07:37:30.200Z,11.40
2017-10-19T07:39:56.529Z,11.40
2017-10-19T07:42:22.875Z,11.00
2017-10-19T07:44:49.150Z,10.80
2017-10-19T07:47:15.417Z,10.50
2017-10-19T07:49:41.716Z,10.40
2017-10-19T07:52:08.797Z,10.10
2017-10-19T07:54:35.100Z,10.10
2017-10-19T07:57:01.371Z,10.00
2017-10-19T07:59:27.695Z,10.00
2017-10-19T08:01:53.973Z,10.00
2017-10-19T08:04:21.020Z,9.90
2017-10-19T08:06:48.068Z,10.00
2017-10-19T08:09:15.112Z,10.00
2017-10-19T08:11:42.161Z,10.00
2017-10-19T08:14:08.432Z,10.00
2017-10-19T08:16:34.777Z,10.10
2017-10-19T08:19:01.182Z,10.20
2017-10-19T08:21:27.513Z,10.30
2017-10-19T08:23:53.842Z,10.40
2017-10-19T08:26:20.906Z,10.60
2017-10-19T08:28:47.174Z,10.60
2017-10-19T08:31:14.554Z,10.80
2017-10-19T08:33:41.587Z,10.90
2017-10-19T08:36:07.889Z,10.90
2017-10-19T08:38:34.192Z,11.00
2017-10-19T08:41:00.481Z,11.10
2017-10-19T08:43:26.823Z,11.20
2017-10-19T08:45:53.116Z,11.30
2017-10-19T08:48:27.139Z,11.60
2017-10-19T08:50:53.414Z,11.50
2017-10-19T08:53:19.744Z,11.70
2017-10-19T08:55:46.050Z,11.70
2017-10-19T08:58:12.317Z,11.90
2017-10-19T09:00:38.630Z,11.90
2017-10-19T09:03:04.960Z,12.00
2017-10-19T09:05:31.257Z,12.10
2017-10-19T09:07:57.555Z,12.20
2017-10-19T09:10:24.607Z,12.40
2017-10-19T09:12:50.916Z,12.40
2017-10-19T09:15:17.296Z,12.60
2017-10-19T09:17:43.575Z,12.70
2017-10-19T09:20:10.587Z,13.00
2017-10-19T09:22:36.983Z,13.00
2017-10-19T09:25:03.334Z,13.10
2017-10-19T09:27:51.744Z,13.30
2017-10-19T09:30:18.119Z,13.40
2017-10-19T09:32:44.443Z,13.50
2017-10-19T09:35:10.769Z,13.70
2017-10-19T09:37:37.047Z,13.80
2017-10-19T09:40:04.135Z,14.10
2017-10-19T09:45:23.696Z,14.30
2017-10-19T09:47:50.030Z,14.50
2017-10-19T09:50:16.374Z,14.80
2017-10-19T09:52:42.691Z,15.00
2017-10-19T09:55:09.010Z,15.20
2017-10-19T09:57:35.361Z,15.40
2017-10-19T10:00:01.711Z,15.60
2017-10-19T10:02:28.025Z,15.80
2017-10-19T10:04:54.363Z,16.00
2017-10-19T10:07:20.682Z,16.20
2017-10-19T10:09:46.988Z,16.40
2017-10-19T10:12:13.359Z,16.60
2017-10-19T10:14:39.616Z,16.80
2017-10-19T10:17:05.932Z,17.00
2017-10-19T10:19:32.268Z,17.10
2017-10-19T10:21:58.599Z,17.20
2017-10-19T10:24:24.921Z,17.40
2017-10-19T10:26:51.265Z,17.50
2017-10-19T10:29:18.311Z,17.80
2017-10-19T10:31:45.359Z,18.00
2017-10-19T10:34:12.415Z,18.10
2017-10-19T10:36:39.476Z,18.30
2017-10-19T10:39:05.811Z,18.20
2017-10-19T10:41:32.111Z,18.30
2017-10-19T10:43:59.228Z,18.20
2017-10-19T10:46:25.540Z,18.20
2017-10-19T10:48:51.895Z,18.10
2017-10-19T10:51:18.230Z,17.90
2017-10-19T10:53:44.532Z,17.80
2017-10-19T10:56:10.843Z,17.80
2017-10-19T10:58:37.182Z,17.90
2017-10-19T11:01:03.572Z,18.10
2017-10-19T11:03:29.879Z,18.40
2017-10-19T11:05:56.922Z,18.90
2017-10-19T11:08:23.185Z,18.90
2017-10-19T11:10:49.528Z,19.10
2017-10-19T11:13:15.818Z,19.30
2017-10-19T11:15:42.835Z,19.70
2017-10-19T11:18:09.135Z,19.70
2017-10-19T11:20:35.451Z,19.90
2017-10-19T11:23:01.759Z,20.00
2017-10-19T11:25:28.061Z,20.10
2017-10-19T11:27:54.726Z,20.30
2017-10-19T11:30:21.019Z,20.40
2017-10-19T11:32:47.309Z,20.50
2017-10-19T11:35:13.672Z,20.60
2017-10-19T11:37:39.998Z,20.70
2017-10-19T11:40:06.328Z,20.80
2017-10-19T11:42:32.636Z,20.80
2017-10-19T11:44:58.946Z,20.80
2017-10-19T11:47:25.228Z,20.90
2017-10-19T11:49:51.489Z,21.00
2017-10-19T11:52:17.798Z,21.00
2017-10-19T11:54:44.820Z,21.10
2017-10-19T11:57:11.128Z,21.10
2017-10-19T11:59:37.442Z,21.10
2017-10-19T12:02:03.795Z,21.20
2017-10-19T12:04:30.080Z,21.20
2017-10-19T12:06:56.381Z,21.20
2017-10-19T12:09:23.422Z,21.30
2017-10-19T12:11:50.504Z,21.40
2017-10-19T12:14:16.797Z,21.40
2017-10-19T12:16:43.842Z,21.50
2017-10-19T12:19:10.157Z,21.50
2017-10-19T12:21:36.453Z,21.50
2017-10-19T12:24:02.786Z,21.60
2017-10-19T12:26:29.107Z,21.50
2017-10-19T12:28:55.386Z,21.60
2017-10-19T12:31:22.473Z,21.60
2017-10-19T12:33:48.806Z,21.60
2017-10-19T12:36:15.086Z,21.60
2017-10-19T12:38:41.406Z,21.60
2017-10-19T12:41:07.678Z,21.60
2017-10-19T12:43:34.014Z,21.70
2017-10-19T12:46:00.307Z,21.70
2017-10-19T12:48:26.648Z,21.70
2017-10-19T12:50:59.802Z,21.70
2017-10-19T12:53:26.574Z,21.80
2017-10-19T12:55:52.874Z,21.80
2017-10-19T12:58:19.926Z,21.90
2017-10-19T13:00:46.227Z,21.90
2017-10-19T13:03:12.573Z,21.90
2017-10-19T13:05:38.908Z,21.80
2017-10-19T13:08:06.694Z,21.70
2017-10-19T13:10:33.746Z,21.80
2017-10-19T13:13:00.059Z,21.70
2017-10-19T13:15:27.114Z,21.70
2017-10-19T13:17:54.141Z,21.70
2017-10-19T13:20:21.180Z,21.70
2017-10-19T13:22:47.514Z,21.70
2017-10-19T13:25:13.814Z,21.70
2017-10-19T13:27:40.120Z,21.70
2017-10-19T13:30:06.436Z,21.80
2017-10-19T13:32:32.755Z,21.70
2017-10-19T13:34:59.053Z,21.70
2017-10-19T13:37:25.361Z,21.70
2017-10-19T13:39:51.676Z,21.70
2017-10-19T13:42:17.989Z,21.60
2017-10-19T13:44:45.038Z,21.60
2017-10-19T13:47:11.336Z,21.60
2017-10-19T13:49:37.640Z,21.60
2017-10-19T13:52:04.773Z,21.50
2017-10-19T13:54:31.135Z,21.50
2017-10-19T13:56:58.166Z,21.60
2017-10-19T13:59:24.446Z,21.60
2017-10-19T14:01:50.778Z,21.60
2017-10-19T14:04:17.959Z,21.80
2017-10-19T14:06:44.283Z,21.80
2017-10-19T14:09:10.586Z,22.00
2017-10-19T14:11:36.897Z,22.10
2017-10-19T14:14:03.227Z,22.30
2017-10-19T14:16:29.541Z,22.40
2017-10-19T14:18:56.126Z,22.40
2017-10-19T14:21:22.455Z,22.50
2017-10-19T14:23:48.758Z,22.60
2017-10-19T14:26:15.081Z,22.60
2017-10-19T14:28:41.409Z,22.70
2017-10-19T14:31:07.740Z,22.90
2017-10-19T14:33:34.029Z,22.90
2017-10-19T14:36:01.057Z,23.00
2017-10-19T14:38:27.404Z,23.00
2017-10-19T14:40:54.024Z,23.00
2017-10-19T14:43:20.308Z,22.90
2017-10-19T14:45:46.636Z,22.80
2017-10-19T14:48:12.941Z,22.80
2017-10-19T14:50:39.269Z,22.70
2017-10-19T14:53:05.611Z,22.70
2017-10-19T14:55:31.911Z,22.70
2017-10-19T14:57:58.964Z,22.60
2017-10-19T15:00:26.004Z,22.50
2017-10-19T15:02:52.414Z,22.40
2017-10-19T15:05:18.717Z,22.30
2017-10-19T15:07:45.023Z,22.00
2017-10-19T15:10:11.342Z,21.90
2017-10-19T15:12:37.650Z,21.80
2017-10-19T15:15:04.751Z,21.30
2017-10-19T15:17:31.055Z,21.30
2017-10-19T15:19:57.347Z,21.10
2017-10-19T15:22:24.394Z,20.60
2017-10-19T15:24:51.454Z,20.50
2017-10-19T15:27:17.729Z,20.40
2017-10-19T15:29:44.048Z,20.20
2017-10-19T15:32:10.378Z,20.00
2017-10-19T15:34:36.698Z,19.70
2017-10-19T15:37:03.706Z,19.10
2017-10-19T15:39:30.034Z,19.00
2017-10-19T15:41:57.091Z,18.50
2017-10-19T15:44:23.394Z,18.40
2017-10-19T15:46:50.533Z,18.00
2017-10-19T15:49:16.808Z,18.00
2017-10-19T15:51:43.117Z,17.80
2017-10-19T15:54:10.205Z,17.50
2017-10-19T15:56:36.504Z,17.50
2017-10-19T15:59:02.820Z,17.40
2017-10-19T16:01:29.154Z,17.20
2017-10-19T16:03:55.538Z,17.10
2017-10-19T16:06:21.802Z,16.90
2017-10-19T16:08:48.843Z,16.60
2017-10-19T16:11:15.911Z,16.50
2017-10-19T16:13:42.228Z,16.40
2017-10-19T16:16:08.568Z,16.30
2017-10-19T16:18:34.871Z,16.20
2017-10-19T16:21:01.933Z,15.90
2017-10-19T16:23:28.279Z,15.90
2017-10-19T16:25:54.581Z,15.80
2017-10-19T16:28:21.657Z,15.60
2017-10-19T16:30:48.019Z,15.60
2017-10-19T16:33:14.360Z,15.50
2017-10-19T16:35:40.669Z,15.40
2017-10-19T16:38:07.364Z,15.20
2017-10-19T16:40:33.682Z,15.20
2017-10-19T16:43:00.053Z,15.00
2017-10-19T16:45:26.357Z,14.90
2017-10-19T16:47:52.693Z,14.80
2017-10-19T16:50:19.021Z,14.60
2017-10-19T16:52:45.309Z,14.50
2017-10-19T16:55:11.647Z,14.40
2017-10-19T17:00:38.396Z,14.10
2017-10-19T17:03:05.587Z,13.80
2017-10-19T17:05:31.977Z,13.80
2017-10-19T17:07:59.063Z,13.60
2017-10-19T17:10:26.149Z,13.50
2017-10-19T17:12:52.486Z,13.50
2017-10-19T17:15:18.836Z,13.40
2017-10-19T17:17:45.911Z,13.20
2017-10-19T17:20:12.216Z,13.20
2017-10-19T17:22:39.265Z,13.10
2017-10-19T17:25:06.312Z,13.00
2017-10-19T17:27:32.648Z,13.00
2017-10-19T17:29:58.978Z,13.00
2017-10-19T17:32:25.299Z,12.90
2017-10-19T17:34:51.662Z,12.80
2017-10-19T17:37:17.994Z,12.70
2017-10-19T17:39:44.419Z,12.70
2017-10-19T17:42:10.752Z,12.60
2017-10-19T17:44:37.087Z,12.50
2017-10-19T17:47:03.439Z,12.50
2017-10-19T17:49:29.832Z,12.40
2017-10-19T17:51:56.192Z,12.40
2017-10-19T17:54:22.536Z,12.30
2017-10-19T17:56:49.699Z,12.20
2017-10-19T17:59:16.784Z,12.10
2017-10-19T18:01:43.117Z,12.10
2017-10-19T18:04:09.472Z,12.10
2017-10-19T18:06:35.968Z,12.00
2017-10-19T18:09:02.423Z,11.90
2017-10-19T18:11:28.862Z,11.90
2017-10-19T18:13:55.290Z,11.80
2017-10-19T18:16:21.652Z,11.80
2017-10-19T18:18:48.107Z,11.80
2017-10-19T18:21:14.504Z,11.70
2017-10-19T18:23:40.904Z,11.60
2017-10-19T18:26:07.312Z,11.60
2017-10-19T18:28:33.695Z,11.60
2017-10-19T18:31:00.104Z,11.50
2017-10-19T18:33:26.847Z,11.50
2017-10-19T18:35:53.247Z,11.50
2017-10-19T18:38:19.659Z,11.40
2017-10-19T18:40:46.126Z,11.40
2017-10-19T18:43:12.560Z,11.30
2017-10-19T18:45:39.013Z,11.30
2017-10-19T18:48:05.392Z,11.20
2017-10-19T18:50:31.795Z,11.20
2017-10-19T18:52:58.913Z,11.10
2017-10-19T18:55:25.342Z,11.10
2017-10-19T18:57:51.751Z,11.10
2017-10-19T19:00:18.351Z,11.00
2017-10-19T19:02:44.838Z,11.00
2017-10-19T19:05:11.264Z,10.90
2017-10-19T19:07:37.734Z,10.90
2017-10-19T19:10:04.985Z,10.90
2017-10-19T19:12:32.128Z,10.80
2017-10-19T19:14:59.221Z,10.70
2017-10-19T19:17:25.631Z,10.70
2017-10-19T19:19:52.049Z,10.70
2017-10-19T19:22:18.490Z,10.60
2017-10-19T19:24:44.926Z,10.60
2017-10-19T19:27:11.362Z,10.60
2017-10-19T19:29:37.741Z,10.60
2017-10-19T19:32:04.208Z,10.50
2017-10-19T19:34:30.737Z,10.50
2017-10-19T19:36:57.184Z,10.50
2017-10-19T19:39:23.547Z,10.40
2017-10-19T19:41:49.997Z,10.40
2017-10-19T19:44:16.399Z,10.40
2017-10-19T19:46:42.859Z,10.30
2017-10-19T19:49:09.297Z,10.30
2017-10-19T19:51:35.722Z,10.30
2017-10-19T19:54:02.121Z,10.30
2017-10-19T19:56:28.522Z,10.20
2017-10-19T19:58:54.946Z,10.20
2017-10-19T20:01:21.387Z,10.30
2017-10-19T20:03:47.859Z,10.20
2017-10-19T20:06:14.288Z,10.20
2017-10-19T20:08:41.048Z,10.20
2017-10-19T20:11:08.180Z,10.20
2017-10-19T20:13:34.605Z,10.20
2017-10-19T20:16:01.034Z,10.10
2017-10-19T20:18:27.401Z,10.10
2017-10-19T20:20:54.813Z,10.10
2017-10-19T20:23:21.172Z,10.10
2017-10-19T20:25:47.505Z,10.10
2017-10-19T20:28:13.893Z,10.10
2017-10-19T20:30:40.190Z,10.00
2017-10-19T20:33:06.909Z,10.00
2017-10-19T20:35:33.992Z,9.90
2017-10-19T20:38:00.339Z,9.90
2017-10-19T20:40:26.699Z,9.80
2017-10-19T20:42:53.042Z,9.80
2017-10-19T20:45:19.399Z,9.80
2017-10-19T20:47:45.730Z,9.80
2017-10-19T20:50:12.086Z,9.70
2017-10-19T20:52:38.443Z,9.70
2017-10-19T20:55:04.793Z,9.70
2017-10-19T20:57:31.869Z,9.60
2017-10-19T21:02:32.171Z,9.60
2017-10-19T21:04:58.468Z,9.60
2017-10-19T21:07:24.799Z,9.60
2017-10-19T21:09:51.093Z,9.60
2017-10-19T21:12:17.430Z,9.50
2017-10-19T21:14:43.737Z,9.50
2017-10-19T21:17:10.075Z,9.50
2017-10-19T21:19:36.393Z,9.50
2017-10-19T21:22:02.711Z,9.50
2017-10-19T21:24:29.781Z,9.40
2017-10-19T21:26:56.066Z,9.40
2017-10-19T21:29:22.400Z,9.40
2017-10-19T21:31:48.725Z,9.30
2017-10-19T21:34:15.035Z,9.30
2017-10-19T21:36:41.380Z,9.30
2017-10-19T21:39:08.420Z,9.20
2017-10-19T21:41:34.737Z,9.20
2017-10-19T21:44:01.060Z,9.20
2017-10-19T21:46:27.397Z,9.20
2017-10-19T21:48:53.698Z,9.10
2017-10-19T21:51:20.064Z,9.10
2017-10-19T21:53:46.411Z,9.10
2017-10-19T21:56:13.471Z,9.00
2017-10-19T21:58:40.526Z,9.00
2017-10-19T22:01:07.576Z,9.00
2017-10-19T22:03:33.969Z,8.90
2017-10-19T22:06:00.294Z,8.90
2017-10-19T22:08:26.613Z,8.90
2017-10-19T22:10:53.209Z,8.90
2017-10-19T22:13:19.506Z,8.90
2017-10-19T22:15:45.803Z,8.90
2017-10-19T22:18:12.123Z,8.80
2017-10-19T22:20:38.435Z,8.80
2017-10-19T22:23:04.761Z,8.80
2017-10-19T22:25:31.069Z,8.70
2017-10-19T22:27:58.121Z,8.70
2017-10-19T22:30:24.432Z,8.60
2017-10-19T22:32:51.487Z,8.60
2017-10-19T22:35:18.524Z,8.60
2017-10-19T22:37:45.565Z,8.60
2017-10-19T22:40:12.660Z,8.60
2017-10-19T22:42:38.964Z,8.60
2017-10-19T22:45:05.266Z,8.60
2017-10-19T22:47:32.332Z,8.60
2017-10-19T22:49:58.636Z,8.60
2017-10-19T22:52:25.998Z,8.70
2017-10-19T22:54:53.042Z,8.70
2017-10-19T22:57:20.067Z,8.70
2017-10-19T22:59:46.413Z,8.60
2017-10-19T23:02:16.038Z,8.60
2017-10-19T23:04:42.371Z,8.60
2017-10-19T23:07:08.671Z,8.60
2017-10-19T23:09:35.710Z,8.60
2017-10-19T23:12:02.010Z,8.50
2017-10-19T23:14:28.320Z,8.50
2017-10-19T23:16:54.662Z,8.50
2017-10-19T23:19:20.933Z,8.50
2017-10-19T23:21:47.994Z,8.50
2017-10-19T23:24:15.032Z,8.40
2017-10-19T23:26:42.093Z,8.50
2017-10-19T23:29:08.740Z,8.40
2017-10-19T23:31:35.035Z,8.50
2017-10-19T23:34:02.098Z,8.50
2017-10-19T23:36:28.437Z,8.50
2017-10-19T23:38:54.719Z,8.50
2017-10-19T23:41:21.032Z,8.60
2017-10-19T23:43:47.329Z,8.60
2017-10-19T23:46:13.642Z,8.50
2017-10-19T23:48:41.106Z,8.50
2017-10-19T23:51:07.436Z,8.50
2017-10-19T23:53:33.721Z,8.40
2017-10-19T23:56:00.043Z,8.40
2017-10-19T23:58:26.343Z,8.40
